Time;durP1;ratioP1;P1;durP2;ratioP2;P2;SDS_P1;SDS_P2;PMS_P1;PMS_P2;Temp;Humidity;BMP_temperature;BMP_pressure;BME280_temperature;BME280_humidity;BME280_pressure;Samples;Min_cycle;Max_cycle;Signal;HPM_P1;HPM_P2
2022/11/09 00:02:20;;;;;;;4.50;0.80;;;13.20;99.90;;;;;;5114936;28;20042;-81
2022/11/09 00:04:45;;;;;;;2.03;0.75;;;13.20;99.90;;;;;;5120307;28;20053;-81
2022/11/09 00:07:11;;;;;;;1.80;0.65;;;13.20;99.90;;;;;;5109195;28;20032;-81
2022/11/09 00:09:37;;;;;;;2.90;0.60;;;13.20;99.90;;;;;;5102045;28;20084;-81
2022/11/09 00:12:04;;;;;;;6.47;1.23;;;13.10;99.90;;;;;;5101722;28;20024;-79
2022/11/09 00:14:30;;;;;;;3.47;0.90;;;13.10;99.90;;;;;;5094036;28;20099;-80
2022/11/09 00:16:56;;;;;;;3.35;0.75;;;13.10;99.90;;;;;;5089512;28;20085;-79
2022/11/09 00:19:22;;;;;;;1.58;0.63;;;13.10;99.90;;;;;;5119873;28;20434;-79
2022/11/09 00:21:48;;;;;;;4.35;1.00;;;13.10;99.90;;;;;;5119895;28;20019;-78
2022/11/09 00:24:14;;;;;;;4.85;0.82;;;13.10;99.90;;;;;;5092209;28;20475;-79
2022/11/09 00:26:40;;;;;;;2.67;0.68;;;13.10;99.90;;;;;;5096814;28;20050;-79
2022/11/09 00:29:05;;;;;;;2.17;0.77;;;13.10;99.90;;;;;;5101393;28;20028;-78
2022/11/09 00:31:31;;;;;;;3.20;0.75;;;13.10;99.90;;;;;;5119485;28;20020;-79
2022/11/09 00:33:57;;;;;;;2.88;0.90;;;13.10;99.90;;;;;;5119718;28;20019;-78
2022/11/09 00:36:26;;;;;;;2.90;0.60;;;13.10;99.90;;;;;;5119331;28;20427;-79
2022/11/09 00:38:55;;;;;;;3.42;0.77;;;13.10;99.90;;;;;;5108567;28;20020;-78
2022/11/09 00:41:21;;;;;;;4.60;0.90;;;13.10;99.90;;;;;;5095798;28;20035;-81
2022/11/09 00:43:47;;;;;;;1.50;0.55;;;13.10;99.90;;;;;;5100383;28;20034;-80
2022/11/09 00:46:13;;;;;;;6.35;1.00;;;13.10;99.90;;;;;;5100815;28;20020;-80
2022/11/09 00:48:39;;;;;;;4.18;0.90;;;13.10;99.90;;;;;;5118109;28;20087;-82
2022/11/09 00:51:05;;;;;;;2.30;0.82;;;13.10;99.90;;;;;;5119275;28;20058;-82
2022/11/09 00:53:31;;;;;;;2.90;1.15;;;13.10;99.90;;;;;;5111663;28;20458;-81
2022/11/09 00:55:58;;;;;;;2.83;0.70;;;13.10;99.90;;;;;;5113210;28;20472;-81
2022/11/09 00:58:25;;;;;;;6.22;0.90;;;13.10;99.90;;;;;;5119284;28;20419;-80
2022/11/09 01:00:51;;;;;;;1.05;0.40;;;13.10;99.90;;;;;;5106506;28;20024;-80
2022/11/09 01:03:17;;;;;;;3.58;0.70;;;13.10;99.90;;;;;;5101161;28;20094;-78
2022/11/09 01:05:43;;;;;;;3.22;0.98;;;13.00;99.90;;;;;;5100638;28;20016;-81
2022/11/09 01:08:09;;;;;;;3.17;0.68;;;13.10;99.90;;;;;;5098666;28;20035;-81
2022/11/09 01:10:35;;;;;;;1.50;0.43;;;13.00;99.90;;;;;;5100938;28;20051;-81
2022/11/09 01:13:00;;;;;;;4.10;0.90;;;13.10;99.90;;;;;;5100655;28;20369;-81
2022/11/09 01:15:26;;;;;;;2.17;0.50;;;13.00;99.90;;;;;;5108963;28;20031;-80
2022/11/09 01:17:52;;;;;;;3.70;0.80;;;13.00;99.90;;;;;;5114559;28;20039;-82
2022/11/09 01:20:17;;;;;;;3.25;0.70;;;13.00;99.90;;;;;;5118584;28;20024;-81
2022/11/09 01:22:43;;;;;;;5.13;0.73;;;13.00;99.90;;;;;;5086546;28;20032;-81
2022/11/09 01:25:09;;;;;;;1.75;0.70;;;12.90;99.90;;;;;;5115018;28;20069;-81
2022/11/09 01:27:35;;;;;;;3.33;0.82;;;13.00;99.90;;;;;;5090241;28;20469;-81
2022/11/09 01:30:00;;;;;;;2.40;0.65;;;13.00;99.90;;;;;;5100216;28;20503;-81
2022/11/09 01:32:26;;;;;;;2.03;0.50;;;12.90;99.90;;;;;;5118549;28;20019;-81
2022/11/09 01:34:52;;;;;;;2.35;0.60;;;12.90;99.90;;;;;;5093837;28;20053;-80
2022/11/09 01:37:17;;;;;;;0.73;0.40;;;12.90;99.90;;;;;;5110627;28;20108;-79
2022/11/09 01:39:43;;;;;;;0.90;0.50;;;12.90;99.90;;;;;;5088405;28;20031;-79
2022/11/09 01:42:09;;;;;;;2.58;0.75;;;12.90;99.90;;;;;;5086736;28;20159;-79
2022/11/09 01:44:37;;;;;;;2.60;0.80;;;12.90;99.90;;;;;;5100017;28;20037;-79
2022/11/09 01:47:20;;;;;;;1.55;0.60;;;12.90;99.90;;;;;;5118037;28;20062;-79
2022/11/09 01:49:55;;;;;;;1.08;0.43;;;12.90;99.90;;;;;;5118316;28;20020;-78
2022/11/09 01:52:22;;;;;;;1.17;0.68;;;12.80;99.90;;;;;;5099942;28;20023;-77
2022/11/09 01:54:56;;;;;;;2.15;0.73;;;12.80;99.90;;;;;;5113899;28;20434;-78
2022/11/09 01:57:24;;;;;;;;;;;12.80;99.90;;;;;;5089050;28;20072;-78
2022/11/09 01:59:58;;;;;;;2.20;0.70;;;12.80;99.90;;;;;;5097736;28;19919;-78
2022/11/09 02:02:23;;;;;;;;;;;12.80;99.90;;;;;;5117351;28;20058;-78
2022/11/09 02:04:54;;;;;;;1.27;0.60;;;12.70;99.90;;;;;;5081050;28;19908;-77
2022/11/09 02:07:21;;;;;;;1.27;0.40;;;12.70;99.90;;;;;;5089540;28;20032;-78
2022/11/09 02:09:58;;;;;;;3.03;0.60;;;12.70;99.90;;;;;;5108308;28;20482;-79
2022/11/09 02:12:27;;;;;;;2.33;0.60;;;12.70;99.90;;;;;;5116928;28;20028;-78
2022/11/09 02:14:53;;;;;;;1.17;0.30;;;12.70;99.90;;;;;;5100495;28;20036;-78
2022/11/09 02:17:20;;;;;;;3.08;0.73;;;12.70;99.90;;;;;;5100428;28;20127;-78
2022/11/09 02:19:46;;;;;;;2.92;0.63;;;12.70;99.90;;;;;;5100145;28;20027;-81
2022/11/09 02:22:12;;;;;;;2.72;0.85;;;12.70;99.90;;;;;;5110819;28;20032;-81
2022/11/09 02:24:37;;;;;;;2.95;0.60;;;12.60;99.90;;;;;;5089565;28;20019;-82
2022/11/09 02:27:05;;;;;;;1.58;0.60;;;12.70;99.90;;;;;;5092198;28;20050;-81
2022/11/09 02:29:40;;;;;;;0.70;0.40;;;12.60;99.90;;;;;;5117768;28;20076;-82
2022/11/09 02:32:28;;;;;;;1.23;0.35;;;12.70;99.90;;;;;;5117637;28;20365;-82
2022/11/09 02:34:53;;;;;;;1.30;0.30;;;12.70;99.90;;;;;;5084629;28;20034;-81
2022/11/09 02:37:38;;;;;;;1.80;0.50;;;12.60;99.90;;;;;;5089094;28;20032;-81
2022/11/09 02:40:09;;;;;;;1.92;0.50;;;12.70;99.90;;;;;;5082449;28;20021;-80
2022/11/09 02:42:35;;;;;;;2.95;0.50;;;12.60;99.90;;;;;;5084565;28;20039;-81
2022/11/09 02:45:01;;;;;;;2.60;0.80;;;12.60;99.90;;;;;;5101169;28;20409;-81
2022/11/09 02:47:26;;;;;;;1.25;0.50;;;12.60;99.90;;;;;;5102681;28;20089;-80
2022/11/09 02:49:52;;;;;;;3.00;0.50;;;12.70;99.90;;;;;;5100243;28;20024;-81
2022/11/09 02:52:18;;;;;;;2.45;0.70;;;12.70;99.90;;;;;;5082215;28;20055;-82
2022/11/09 02:54:44;;;;;;;2.03;0.50;;;12.60;99.90;;;;;;5099337;28;20453;-80
2022/11/09 02:57:10;;;;;;;2.28;0.60;;;12.60;99.90;;;;;;5105752;28;20103;-80
2022/11/09 02:59:36;;;;;;;3.47;0.50;;;12.60;99.90;;;;;;5082035;28;20104;-80
2022/11/09 03:02:01;;;;;;;3.33;0.85;;;12.60;99.90;;;;;;5117443;28;20496;-80
2022/11/09 03:04:27;;;;;;;2.00;0.52;;;12.60;99.90;;;;;;5103566;28;20400;-82
2022/11/09 03:06:52;;;;;;;1.67;0.50;;;12.50;99.90;;;;;;5085478;28;20016;-79
2022/11/09 03:09:18;;;;;;;1.30;0.55;;;12.50;99.90;;;;;;5121354;28;20484;-80
2022/11/09 03:11:44;;;;;;;2.20;0.60;;;12.60;99.90;;;;;;5121210;28;20027;-80
2022/11/09 03:14:10;;;;;;;2.30;0.60;;;12.50;99.90;;;;;;5121345;28;20030;-80
2022/11/09 03:16:37;;;;;;;2.05;0.47;;;12.50;99.90;;;;;;5092114;28;20047;-80
2022/11/09 03:19:02;;;;;;;2.33;0.57;;;12.50;99.90;;;;;;5103136;28;20032;-80
2022/11/09 03:21:28;;;;;;;1.17;0.40;;;12.50;99.90;;;;;;5120758;28;20068;-80
2022/11/09 03:23:54;;;;;;;2.40;0.70;;;12.50;99.90;;;;;;5102969;28;20023;-80
2022/11/09 03:26:20;;;;;;;2.83;0.85;;;12.50;99.90;;;;;;5102543;28;20027;-80
2022/11/09 03:28:46;;;;;;;7.80;1.00;;;12.40;99.90;;;;;;5114723;28;20024;-80
2022/11/09 03:31:12;;;;;;;2.80;0.70;;;12.40;99.90;;;;;;5114159;28;20447;-80
2022/11/09 03:33:38;;;;;;;1.80;0.50;;;12.40;99.90;;;;;;5100554;28;20024;-79
2022/11/09 03:36:04;;;;;;;2.53;0.55;;;12.40;99.90;;;;;;5120573;28;20030;-80
2022/11/09 03:38:30;;;;;;;1.50;0.60;;;12.40;99.90;;;;;;5095689;28;20020;-80
2022/11/09 03:40:58;;;;;;;1.35;0.40;;;12.30;99.90;;;;;;5092117;28;20044;-82
2022/11/09 03:43:24;;;;;;;1.73;0.55;;;12.40;99.90;;;;;;5120624;28;20023;-81
2022/11/09 03:45:49;;;;;;;2.45;0.50;;;12.40;99.90;;;;;;5120691;28;20049;-81
2022/11/09 03:48:15;;;;;;;2.22;0.50;;;12.40;99.90;;;;;;5102030;28;20047;-81
2022/11/09 03:50:41;;;;;;;5.32;0.82;;;12.40;99.90;;;;;;5120407;28;20027;-79
2022/11/09 03:53:08;;;;;;;2.15;0.65;;;12.30;99.90;;;;;;5103427;28;20039;-79
2022/11/09 03:55:34;;;;;;;2.63;0.70;;;12.30;99.90;;;;;;5100079;28;20016;-79
2022/11/09 03:58:00;;;;;;;0.85;0.32;;;12.30;99.90;;;;;;5099857;28;20028;-79
2022/11/09 04:00:26;;;;;;;5.30;1.00;;;12.30;99.90;;;;;;5082321;28;20560;-79
2022/11/09 04:02:52;;;;;;;3.40;0.60;;;12.30;99.90;;;;;;5098812;28;20046;-79
2022/11/09 04:05:18;;;;;;;6.05;0.93;;;12.30;99.90;;;;;;5111137;28;20027;-78
2022/11/09 04:07:49;;;;;;;1.55;0.50;;;12.30;99.90;;;;;;5084959;28;20568;-78
2022/11/09 04:10:15;;;;;;;2.17;0.68;;;12.30;99.90;;;;;;5114564;28;20096;-79
2022/11/09 04:12:41;;;;;;;2.10;0.40;;;12.30;99.90;;;;;;5095842;28;20147;-78
2022/11/09 04:15:07;;;;;;;2.53;0.50;;;12.40;99.90;;;;;;5105866;28;20047;-79
2022/11/09 04:17:32;;;;;;;1.40;0.52;;;12.30;99.90;;;;;;5112617;28;20465;-78
2022/11/09 04:19:58;;;;;;;1.60;0.38;;;12.30;99.90;;;;;;5108726;28;20047;-78
2022/11/09 04:22:24;;;;;;;3.55;0.80;;;12.30;99.90;;;;;;5102308;28;20545;-78
2022/11/09 04:24:49;;;;;;;2.50;0.68;;;12.30;99.90;;;;;;5084503;28;20484;-80
2022/11/09 04:27:15;;;;;;;2.55;0.50;;;12.30;99.90;;;;;;5098735;28;20024;-80
2022/11/09 04:29:41;;;;;;;4.57;0.80;;;12.20;99.90;;;;;;5099716;28;20480;-80
2022/11/09 04:32:06;;;;;;;2.42;0.60;;;12.30;99.90;;;;;;5094852;28;20044;-80
2022/11/09 04:34:32;;;;;;;2.05;0.82;;;12.20;99.90;;;;;;5101820;28;20047;-80
2022/11/09 04:36:57;;;;;;;2.78;0.60;;;12.20;99.90;;;;;;5086375;28;20032;-80
2022/11/09 04:39:23;;;;;;;3.63;0.68;;;12.20;99.90;;;;;;5099403;28;20039;-80
2022/11/09 04:41:49;;;;;;;0.65;0.30;;;12.20;99.90;;;;;;5087545;28;20028;-80
2022/11/09 04:44:14;;;;;;;3.05;0.70;;;12.20;99.90;;;;;;5093409;28;20035;-79
2022/11/09 04:46:40;;;;;;;2.20;0.50;;;12.20;99.90;;;;;;5085740;28;20492;-78
2022/11/09 04:49:06;;;;;;;1.50;0.47;;;12.20;99.90;;;;;;5109184;28;20044;-79
2022/11/09 04:51:31;;;;;;;1.15;0.70;;;12.20;99.90;;;;;;5091879;28;20484;-79
2022/11/09 04:53:57;;;;;;;4.55;0.60;;;12.10;99.90;;;;;;5112496;28;20023;-79
2022/11/09 04:56:22;;;;;;;1.15;0.63;;;12.20;99.90;;;;;;5112394;28;20047;-80
2022/11/09 04:58:48;;;;;;;2.60;0.50;;;12.10;99.90;;;;;;5083789;28;20056;-80
2022/11/09 05:01:14;;;;;;;2.90;0.40;;;12.10;99.90;;;;;;5098348;28;20107;-80
2022/11/09 05:03:40;;;;;;;1.75;0.40;;;12.10;99.90;;;;;;5105245;28;20024;-80
2022/11/09 05:08:53;;;;;;;4.10;0.70;;;12.10;99.90;;;;;;5098988;28;20039;-80
2022/11/09 05:11:19;;;;;;;1.15;0.50;;;12.10;99.90;;;;;;5104893;28;20077;-80
2022/11/09 05:13:45;;;;;;;3.05;0.60;;;12.10;99.90;;;;;;5112052;28;20024;-80
2022/11/09 05:16:11;;;;;;;0.95;0.45;;;12.10;99.90;;;;;;5108513;28;20036;-80
2022/11/09 05:18:36;;;;;;;3.15;0.82;;;12.10;99.90;;;;;;5090279;28;20681;-80
2022/11/09 05:21:02;;;;;;;3.47;0.90;;;12.10;99.90;;;;;;5098094;28;20087;-79
2022/11/09 05:26:13;;;;;;;1.27;0.60;;;12.10;99.90;;;;;;5105614;28;20038;-78
2022/11/09 05:28:38;;;;;;;3.75;0.65;;;12.10;99.90;;;;;;5109248;28;20488;-78
2022/11/09 05:31:04;;;;;;;5.38;1.02;;;12.10;99.90;;;;;;5111271;28;20077;-78
2022/11/09 05:33:30;;;;;;;3.38;0.85;;;12.10;99.90;;;;;;5086293;28;20407;-79
2022/11/09 05:35:56;;;;;;;2.85;0.50;;;12.10;99.90;;;;;;5093249;28;20034;-77
2022/11/09 05:38:23;;;;;;;4.07;0.82;;;12.10;99.90;;;;;;5098838;28;20504;-79
2022/11/09 05:40:52;;;;;;;2.40;0.50;;;12.20;99.90;;;;;;5104486;28;20024;-78
2022/11/09 05:43:18;;;;;;;3.42;0.80;;;12.10;99.90;;;;;;5092132;28;20020;-82
2022/11/09 05:45:44;;;;;;;5.65;0.80;;;12.10;99.90;;;;;;5090424;28;20024;-82
2022/11/09 05:48:12;;;;;;;3.92;0.70;;;12.10;99.90;;;;;;5059199;28;20044;-81
2022/11/09 05:50:38;;;;;;;4.25;0.70;;;12.10;99.90;;;;;;5105945;28;20027;-82
2022/11/09 05:53:04;;;;;;;3.72;0.80;;;12.20;99.90;;;;;;5086198;28;20059;-81
2022/11/09 05:55:29;;;;;;;3.45;0.82;;;12.10;99.90;;;;;;5111648;28;20027;-81
2022/11/09 05:57:55;;;;;;;4.57;0.88;;;12.10;99.90;;;;;;5085838;28;20054;-80
2022/11/09 06:00:21;;;;;;;1.92;0.60;;;12.10;99.90;;;;;;5103370;28;20077;-81
2022/11/09 06:02:47;;;;;;;2.83;0.75;;;12.20;99.90;;;;;;5113589;28;20049;-81
2022/11/09 06:05:12;;;;;;;8.18;1.20;;;12.20;99.90;;;;;;5100203;28;20454;-79
2022/11/09 06:07:38;;;;;;;3.35;0.80;;;12.10;99.90;;;;;;5091288;28;20035;-79
2022/11/09 06:10:04;;;;;;;6.25;0.82;;;12.10;99.90;;;;;;5108248;28;20031;-79
2022/11/09 06:12:30;;;;;;;4.95;0.85;;;12.20;99.90;;;;;;5091840;28;20027;-80
2022/11/09 06:14:56;;;;;;;0.93;0.60;;;12.20;99.90;;;;;;5117869;28;20054;-81
2022/11/09 06:17:21;;;;;;;5.30;0.68;;;12.20;99.90;;;;;;5114374;28;20024;-80
2022/11/09 06:19:47;;;;;;;3.75;0.65;;;12.20;99.90;;;;;;5106297;28;20031;-79
2022/11/09 06:22:13;;;;;;;6.18;1.00;;;12.20;99.90;;;;;;5107197;28;20032;-79
2022/11/09 06:24:39;;;;;;;2.50;0.75;;;12.20;99.90;;;;;;5098823;28;20077;-78
2022/11/09 06:27:05;;;;;;;1.70;0.50;;;12.20;99.90;;;;;;5104340;28;20062;-78
2022/11/09 06:29:30;;;;;;;1.95;0.55;;;12.20;99.90;;;;;;5098406;28;20024;-78
2022/11/09 06:31:56;;;;;;;3.15;0.77;;;12.30;99.90;;;;;;5086926;28;20016;-79
2022/11/09 06:34:22;;;;;;;5.00;1.15;;;12.30;99.90;;;;;;5100654;28;20028;-79
2022/11/09 06:36:47;;;;;;;1.63;0.40;;;12.20;99.90;;;;;;5086383;28;20395;-79
2022/11/09 06:39:13;;;;;;;2.63;0.73;;;12.30;99.90;;;;;;5079373;28;20511;-79
2022/11/09 06:41:38;;;;;;;6.95;1.15;;;12.30;99.90;;;;;;5100125;28;20035;-78
2022/11/09 06:44:04;;;;;;;3.58;0.73;;;12.20;99.90;;;;;;5109440;28;20032;-77
2022/11/09 06:46:31;;;;;;;4.43;0.90;;;12.20;99.90;;;;;;5100284;28;20024;-79
2022/11/09 06:48:57;;;;;;;3.65;0.65;;;12.20;99.90;;;;;;5102746;28;20185;-78
2022/11/09 06:51:23;;;;;;;2.17;0.70;;;12.30;99.90;;;;;;5103073;28;20514;-79
2022/11/09 06:53:48;;;;;;;2.40;0.70;;;12.30;99.90;;;;;;5081740;28;20521;-78
2022/11/09 06:56:14;;;;;;;2.58;1.08;;;12.30;99.90;;;;;;5099152;28;20031;-79
2022/11/09 06:58:40;;;;;;;2.22;0.70;;;12.30;99.90;;;;;;5095110;28;20032;-79
2022/11/09 07:01:11;;;;;;;3.55;0.70;;;12.30;99.90;;;;;;5096617;28;20435;-79
2022/11/09 07:03:38;;;;;;;1.75;0.50;;;12.30;99.90;;;;;;5079533;28;20027;-79
2022/11/09 07:06:06;;;;;;;3.05;0.50;;;12.20;99.90;;;;;;5084079;28;20043;-80
2022/11/09 07:08:31;;;;;;;1.65;0.55;;;12.30;99.90;;;;;;5102984;28;20050;-80
2022/11/09 07:11:11;;;;;;;2.78;0.70;;;12.20;99.90;;;;;;5102818;28;20412;-80
2022/11/09 07:13:37;;;;;;;2.58;0.60;;;12.20;99.90;;;;;;5076734;28;20095;-79
2022/11/09 07:16:04;;;;;;;4.32;0.85;;;12.20;99.90;;;;;;5078985;28;20077;-79
2022/11/09 07:18:30;;;;;;;2.65;0.77;;;12.20;99.90;;;;;;5076144;28;20037;-78
2022/11/09 07:20:56;;;;;;;2.55;0.80;;;12.20;99.90;;;;;;5090023;28;20040;-79
2022/11/09 07:23:21;;;;;;;2.85;0.65;;;12.20;99.90;;;;;;5099021;28;20020;-78
2022/11/09 07:25:47;;;;;;;2.13;0.50;;;12.20;99.90;;;;;;5086586;28;20028;-79
2022/11/09 07:28:13;;;;;;;3.10;0.98;;;12.20;99.90;;;;;;5099584;28;20412;-79
2022/11/09 07:30:38;;;;;;;3.72;0.80;;;12.20;99.90;;;;;;5101781;28;20012;-79
2022/11/09 07:33:13;;;;;;;2.50;0.88;;;12.20;99.90;;;;;;5082874;28;20018;-79
2022/11/09 07:35:38;;;;;;;1.33;0.30;;;12.20;99.90;;;;;;5078629;28;20583;-79
2022/11/09 07:38:04;;;;;;;2.97;0.60;;;12.20;99.90;;;;;;5102228;28;20056;-79
2022/11/09 07:40:30;;;;;;;3.17;0.70;;;12.30;99.90;;;;;;5078674;28;20040;-79
2022/11/09 07:43:01;;;;;;;5.32;0.70;;;12.30;99.90;;;;;;5108669;28;20020;-78
2022/11/09 07:45:28;;;;;;;2.90;0.73;;;12.30;99.90;;;;;;5101240;28;20028;-78
2022/11/09 07:48:02;;;;;;;1.30;0.50;;;12.30;99.90;;;;;;5088795;28;20127;-80
2022/11/09 07:50:29;;;;;;;1.05;0.45;;;12.30;99.90;;;;;;5098874;28;20027;-80
2022/11/09 07:52:56;;;;;;;1.23;0.47;;;12.30;99.90;;;;;;5081645;28;20020;-80
2022/11/09 07:55:22;;;;;;;2.45;0.50;;;12.40;99.90;;;;;;5067312;28;20026;-79
2022/11/09 07:57:48;;;;;;;1.45;0.30;;;12.30;99.90;;;;;;5083302;28;20056;-79
2022/11/09 08:00:14;;;;;;;2.05;0.63;;;12.30;99.90;;;;;;5099139;28;20023;-79
2022/11/09 08:02:40;;;;;;;0.85;0.40;;;12.40;99.90;;;;;;5100403;28;20032;-79
2022/11/09 08:05:06;;;;;;;0.82;0.52;;;12.40;99.90;;;;;;5099883;28;20077;-79
2022/11/09 08:07:33;;;;;;;4.30;1.10;;;12.40;99.90;;;;;;5102399;28;20028;-79
2022/11/09 08:09:58;;;;;;;3.90;0.73;;;12.40;99.90;;;;;;5120432;28;20054;-78
2022/11/09 08:12:24;;;;;;;3.40;0.70;;;12.30;99.90;;;;;;5101651;28;20028;-80
2022/11/09 08:14:50;;;;;;;1.85;0.63;;;12.40;99.90;;;;;;5101930;28;20422;-82
2022/11/09 08:17:15;;;;;;;1.52;0.57;;;12.40;99.90;;;;;;5119927;28;20027;-82
2022/11/09 08:19:41;;;;;;;2.25;0.60;;;12.40;99.90;;;;;;5101605;28;20035;-82
2022/11/09 08:22:07;;;;;;;3.15;0.65;;;12.40;99.90;;;;;;5119839;28;20034;-79
2022/11/09 08:24:32;;;;;;;2.72;0.60;;;12.50;99.90;;;;;;5120259;28;20507;-79
2022/11/09 08:26:58;;;;;;;3.45;0.70;;;12.40;99.90;;;;;;5119652;28;20426;-80
2022/11/09 08:29:24;;;;;;;5.03;0.70;;;12.50;99.90;;;;;;5092176;28;20023;-81
2022/11/09 08:31:50;;;;;;;2.60;0.70;;;12.50;99.90;;;;;;5101268;28;20407;-81
2022/11/09 08:34:16;;;;;;;3.65;0.85;;;12.50;99.90;;;;;;5119672;28;20027;-80
2022/11/09 08:36:42;;;;;;;5.60;1.17;;;12.50;99.90;;;;;;5119297;28;20019;-84
2022/11/09 08:39:08;;;;;;;3.13;0.55;;;12.50;99.90;;;;;;5080654;28;20020;-82
2022/11/09 08:41:34;;;;;;;3.10;0.65;;;12.50;99.90;;;;;;5088582;28;20525;-82
2022/11/09 08:44:00;;;;;;;6.15;0.85;;;12.50;99.90;;;;;;5077978;28;20054;-84
2022/11/09 08:46:25;;;;;;;4.20;0.75;;;12.50;99.90;;;;;;5097744;28;20081;-73
2022/11/09 08:48:51;;;;;;;3.47;0.80;;;12.60;99.90;;;;;;5101778;28;20062;-75
2022/11/09 08:51:17;;;;;;;4.00;0.57;;;12.60;99.90;;;;;;5079988;28;20028;-72
2022/11/09 08:53:42;;;;;;;2.92;0.68;;;12.60;99.90;;;;;;5063527;28;20019;-72
2022/11/09 08:56:08;;;;;;;1.48;0.60;;;12.70;99.90;;;;;;5104489;28;20016;-71
2022/11/09 08:58:35;;;;;;;2.83;0.60;;;12.70;99.90;;;;;;5086137;28;20085;-72
2022/11/09 09:01:00;;;;;;;1.98;0.57;;;12.70;99.90;;;;;;5096493;28;20024;-72
2022/11/09 09:03:26;;;;;;;3.35;0.82;;;12.70;99.90;;;;;;5096840;28;20027;-72
2022/11/09 09:05:51;;;;;;;1.92;0.60;;;12.70;99.90;;;;;;5097506;28;20101;-71
2022/11/09 09:08:20;;;;;;;1.52;0.40;;;12.70;99.90;;;;;;5118133;28;20023;-74
2022/11/09 09:10:46;;;;;;;5.97;0.80;;;12.70;99.90;;;;;;5103457;28;20511;-72
2022/11/09 09:13:12;;;;;;;2.08;0.50;;;12.80;99.90;;;;;;5109583;28;20016;-74
2022/11/09 09:15:38;;;;;;;3.58;0.80;;;12.70;99.90;;;;;;5097279;28;20032;-73
2022/11/09 09:18:04;;;;;;;4.55;0.80;;;12.80;99.90;;;;;;5097949;28;20030;-73
2022/11/09 09:20:30;;;;;;;4.03;0.57;;;12.70;99.90;;;;;;5097660;28;20066;-73
2022/11/09 09:22:59;;;;;;;2.25;0.50;;;12.80;99.90;;;;;;5097121;28;20024;-73
2022/11/09 09:25:26;;;;;;;5.55;1.00;;;12.80;99.90;;;;;;5109659;28;20070;-77
2022/11/09 09:27:51;;;;;;;3.83;0.50;;;12.80;99.90;;;;;;5096777;28;20024;-77
2022/11/09 09:30:17;;;;;;;5.45;1.10;;;12.80;99.90;;;;;;5097058;28;20031;-74
2022/11/09 09:32:43;;;;;;;1.17;0.60;;;12.80;99.90;;;;;;5096954;28;20564;-75
2022/11/09 09:35:09;;;;;;;2.83;0.60;;;12.80;99.90;;;;;;5078234;28;20030;-76
2022/11/09 09:37:35;;;;;;;7.18;0.82;;;12.80;99.90;;;;;;5097413;28;20396;-76
2022/11/09 09:40:00;;;;;;;5.18;0.73;;;12.90;99.90;;;;;;5094951;28;20053;-77
2022/11/09 09:42:34;;;;;;;3.05;0.68;;;12.90;99.90;;;;;;5097922;28;20020;-72
2022/11/09 09:45:11;;;;;;;4.95;0.73;;;12.90;99.90;;;;;;5095330;28;20713;-77
2022/11/09 09:47:56;;;;;;;3.58;0.82;;;12.90;99.90;;;;;;5117525;28;20046;-75
2022/11/09 09:50:25;;;;;;;5.00;0.98;;;12.90;99.90;;;;;;5113500;28;20077;-74
2022/11/09 09:53:13;;;;;;;3.42;0.55;;;13.00;99.90;;;;;;5117030;28;20020;-76
2022/11/09 09:55:49;;;;;;;1.95;0.57;;;13.00;99.90;;;;;;5116707;28;20028;-75
2022/11/09 09:58:25;;;;;;;0.73;0.40;;;13.10;99.90;;;;;;5105357;28;20064;-74
2022/11/09 10:00:57;;;;;;;8.45;1.00;;;13.10;99.90;;;;;;5096688;28;20028;-76
2022/11/09 10:03:23;;;;;;;4.53;1.10;;;13.10;99.90;;;;;;5077814;28;20095;-74
2022/11/09 10:06:00;;;;;;;2.60;0.98;;;13.20;99.90;;;;;;5096513;28;20445;-73
2022/11/09 10:09:01;;;;;;;2.42;0.90;;;13.20;99.90;;;;;;5075617;28;20394;-75
2022/11/09 10:11:41;;;;;;;3.78;0.80;;;13.20;99.90;;;;;;5075953;28;20087;-74
2022/11/09 10:14:40;;;;;;;4.28;0.82;;;13.20;99.90;;;;;;5097212;28;20021;-75
2022/11/09 10:17:14;;;;;;;2.85;0.60;;;13.30;99.90;;;;;;5098318;28;20107;-76
2022/11/09 10:19:54;;;;;;;3.58;0.68;;;13.30;99.90;;;;;;5102993;28;20027;-75
2022/11/09 10:22:38;;;;;;;3.72;0.75;;;13.40;99.90;;;;;;5097187;28;20058;-75
2022/11/09 10:25:10;;;;;;;5.35;0.95;;;13.40;99.90;;;;;;5083051;28;21190;-75
2022/11/09 10:27:41;;;;;;;4.13;0.95;;;13.50;99.90;;;;;;5102631;28;20027;-77
2022/11/09 10:30:13;;;;;;;7.85;1.00;;;13.60;99.90;;;;;;5099622;28;20027;-76
2022/11/09 10:32:41;;;;;;;7.20;0.90;;;13.60;99.90;;;;;;5112191;28;20488;-74
2022/11/09 10:35:20;;;;;;;5.57;0.90;;;13.60;99.90;;;;;;5097956;28;20108;-76
2022/11/09 10:37:48;;;;;;;3.28;0.70;;;13.70;99.90;;;;;;5083814;28;20021;-75
2022/11/09 10:40:26;;;;;;;2.92;0.70;;;13.80;99.90;;;;;;5096925;28;20111;-76
2022/11/09 10:43:00;;;;;;;4.05;0.70;;;13.80;99.90;;;;;;5101112;28;20024;-77
2022/11/09 10:45:31;;;;;;;5.88;1.10;;;13.80;99.90;;;;;;5086762;28;20027;-77
2022/11/09 10:47:57;;;;;;;2.13;0.63;;;13.80;99.90;;;;;;5092447;28;20048;-77
2022/11/09 10:50:32;;;;;;;5.22;1.00;;;13.80;99.90;;;;;;5078576;28;20020;-75
2022/11/09 10:53:07;;;;;;;3.28;0.90;;;13.90;99.90;;;;;;5103733;28;20020;-73
2022/11/09 10:55:35;;;;;;;3.97;0.82;;;13.90;99.90;;;;;;5106288;28;20100;-75
2022/11/09 10:58:30;;;;;;;5.38;0.88;;;13.90;99.90;;;;;;5107494;28;20024;-75
2022/11/09 11:01:19;;;;;;;5.78;1.20;;;14.00;99.90;;;;;;5073583;28;20032;-76
2022/11/09 11:03:49;;;;;;;6.55;1.25;;;14.00;99.90;;;;;;5086677;28;20031;-75
2022/11/09 11:06:26;;;;;;;6.07;1.00;;;14.00;99.90;;;;;;5096365;28;20036;-76
2022/11/09 11:09:14;;;;;;;9.30;0.98;;;14.10;99.90;;;;;;5102803;28;20086;-75
2022/11/09 11:11:40;;;;;;;4.03;1.00;;;14.10;99.90;;;;;;5108433;28;20024;-75
2022/11/09 11:14:26;;;;;;;3.88;0.82;;;14.10;99.90;;;;;;5094017;28;20016;-76
2022/11/09 11:16:52;;;;;;;5.15;1.30;;;14.20;99.90;;;;;;5101706;28;20029;-73
2022/11/09 11:19:28;;;;;;;5.57;0.88;;;14.20;99.90;;;;;;5096653;28;20058;-76
2022/11/09 11:22:17;;;;;;;3.92;0.70;;;14.30;99.90;;;;;;5095572;28;20096;-82
2022/11/09 11:25:01;;;;;;;6.80;1.20;;;14.30;99.90;;;;;;5086884;28;20111;-74
2022/11/09 11:27:52;;;;;;;5.35;0.68;;;14.30;99.90;;;;;;5116383;28;20028;-75
2022/11/09 11:30:31;;;;;;;4.72;1.13;;;14.30;99.90;;;;;;5102236;28;20077;-77
2022/11/09 11:32:57;;;;;;;5.75;0.95;;;14.40;99.90;;;;;;5114284;28;20079;-74
2022/11/09 11:35:32;;;;;;;4.05;0.93;;;14.30;99.90;;;;;;5099580;28;20024;-75
2022/11/09 11:38:26;;;;;;;9.20;1.40;;;14.30;99.90;;;;;;5097793;28;20028;-76
2022/11/09 11:41:03;;;;;;;;;;;14.30;99.90;;;;;;5098622;28;20088;-76
2022/11/09 11:43:32;;;;;;;3.72;0.80;;;14.30;99.90;;;;;;5099032;28;19903;-74
2022/11/09 11:46:21;;;;;;;3.92;0.95;;;14.20;99.90;;;;;;5120470;28;20034;-80
2022/11/09 11:49:08;;;;;;;4.18;0.90;;;14.20;99.90;;;;;;5120335;28;20114;-77
2022/11/09 11:52:02;;;;;;;2.80;0.57;;;14.30;99.90;;;;;;5120105;28;20560;-81
2022/11/09 11:54:43;;;;;;;4.93;1.08;;;14.30;99.90;;;;;;5078772;28;20161;-77
2022/11/09 11:57:12;;;;;;;5.22;0.93;;;14.40;99.90;;;;;;5117831;28;20032;-77
2022/11/09 11:59:45;;;;;;;5.70;1.55;;;14.40;99.90;;;;;;5099203;28;20016;-73
2022/11/09 12:02:38;;;;;;;3.78;0.90;;;14.40;99.90;;;;;;5101468;28;20076;-78
2022/11/09 12:05:23;;;;;;;5.47;1.15;;;14.50;99.90;;;;;;5095818;28;20034;-81
2022/11/09 12:07:57;;;;;;;6.75;1.00;;;14.60;99.90;;;;;;5107128;28;20032;-79
2022/11/09 12:10:30;;;;;;;5.30;1.20;;;14.60;99.90;;;;;;5093471;28;20118;-78
2022/11/09 12:13:34;;;;;;;4.85;1.10;;;14.60;99.90;;;;;;5111358;28;20027;-75
2022/11/09 12:16:08;;;;;;;;;;;14.60;99.90;;;;;;5118807;28;20015;-77
2022/11/09 12:18:49;;;;;;;6.18;0.85;;;14.70;99.90;;;;;;5119461;28;19904;-78
2022/11/09 12:21:25;;;;;;;6.25;0.88;;;14.70;99.90;;;;;;5111017;28;20032;-88
2022/11/09 12:24:17;;;;;;;8.93;1.63;;;14.70;99.90;;;;;;5098927;28;20043;-73
2022/11/09 12:27:10;;;;;;;6.68;1.20;;;14.70;99.90;;;;;;5092400;28;20485;-72
2022/11/09 12:29:57;;;;;;;2.80;0.73;;;14.80;99.90;;;;;;5090518;28;20502;-76
2022/11/09 12:32:37;;;;;;;3.08;0.85;;;14.80;99.90;;;;;;5101840;28;20028;-79
2022/11/09 12:35:21;;;;;;;5.40;0.95;;;14.90;99.90;;;;;;5098975;28;20105;-82
2022/11/09 12:38:00;;;;;;;3.08;0.75;;;14.90;99.90;;;;;;5083390;28;20039;-78
2022/11/09 12:40:34;;;;;;;2.88;0.63;;;15.00;99.90;;;;;;5103114;28;20016;-81
2022/11/09 12:43:11;;;;;;;3.97;1.05;;;15.00;99.50;;;;;;5119190;28;20058;-91
2022/11/09 12:45:40;;;;;;;8.18;1.20;;;15.00;99.90;;;;;;5098831;28;20031;-80
2022/11/09 12:48:28;;;;;;;2.17;0.65;;;15.00;99.50;;;;;;5097510;28;20538;-73
2022/11/09 12:50:55;;;;;;;2.90;0.98;;;15.10;99.40;;;;;;5098362;28;20039;-72
2022/11/09 12:53:26;;;;;;;2.75;0.70;;;15.10;99.20;;;;;;5098542;28;20027;-73
2022/11/09 12:56:03;;;;;;;4.57;0.90;;;15.00;98.10;;;;;;5100212;28;20026;-72
2022/11/09 12:58:32;;;;;;;5.53;1.00;;;15.10;98.60;;;;;;5119288;28;20031;-72
2022/11/09 13:01:00;;;;;;;3.50;0.70;;;15.00;99.50;;;;;;5119181;28;20047;-76
2022/11/09 13:03:31;;;;;;;4.43;0.68;;;15.00;97.70;;;;;;5119367;28;20031;-74
2022/11/09 13:06:29;;;;;;;3.47;0.85;;;15.00;98.90;;;;;;5101508;28;20024;-73